Time;durP1;ratioP1;P1;durP2;ratioP2;P2;SDS_P1;SDS_P2;PMS_P1;PMS_P2;Temp;Humidity;BMP_temperature;BMP_pressure;BME280_temperature;BME280_humidity;BME280_pressure;Samples;Min_cycle;Max_cycle;Signal;HPM_P1;HPM_P2
2024/03/18 00:00:14;;;;;;;0.22;0.22;;;;;;;13.57;77.99;101607.31;5084859;28;20050;-79
2024/03/18 00:02:42;;;;;;;0.17;0.17;;;;;;;13.46;78.36;101608.44;5078933;28;20043;-79
2024/03/18 00:05:14;;;;;;;6.82;0.77;;;;;;;13.37;78.73;101605.06;5082656;28;20034;-78
2024/03/18 00:07:40;;;;;;;0.32;0.32;;;;;;;13.46;78.05;101604.00;5084163;28;20032;-77
2024/03/18 00:10:09;;;;;;;0.10;0.10;;;;;;;13.51;77.93;101602.13;5082987;28;20044;-79
2024/03/18 00:12:37;;;;;;;1.65;1.55;;;;;;;13.52;78.12;101600.31;5088678;28;20024;-78
2024/03/18 00:15:04;;;;;;;0.10;0.10;;;;;;;13.50;77.77;101600.38;5090127;28;20051;-79
2024/03/18 00:17:30;;;;;;;0.28;0.28;;;;;;;13.46;77.90;101596.03;5088872;28;20028;-78
2024/03/18 00:19:56;;;;;;;0.10;0.10;;;;;;;13.39;77.83;101591.72;5080621;28;20081;-78
2024/03/18 00:22:22;;;;;;;0.10;0.10;;;;;;;13.31;78.04;101588.28;5089306;28;20032;-78
2024/03/18 00:24:49;;;;;;;0.50;0.50;;;;;;;13.31;78.48;101598.94;5093923;28;20049;-78
2024/03/18 00:27:15;;;;;;;0.15;0.15;;;;;;;13.30;77.89;101597.19;5090664;28;20081;-79
2024/03/18 00:29:41;;;;;;;0.20;0.20;;;;;;;13.30;77.89;101597.19;5091520;28;20028;-79
2024/03/18 00:32:07;;;;;;;0.30;0.30;;;;;;;13.27;77.66;101592.78;5093381;28;20036;-78
2024/03/18 00:34:33;;;;;;;0.47;0.47;;;;;;;13.23;77.88;101597.31;5093958;28;20055;-78
2024/03/18 00:37:00;;;;;;;0.10;0.10;;;;;;;13.24;77.79;101599.03;5091267;28;20023;-78
2024/03/18 00:39:27;;;;;;;0.25;0.25;;;;;;;13.21;78.03;101593.81;5090867;28;20052;-77
2024/03/18 00:41:58;;;;;;;0.22;0.22;;;;;;;13.22;77.83;101590.22;5094183;28;20097;-79
2024/03/18 00:44:26;;;;;;;0.13;0.13;;;;;;;13.22;78.33;101584.91;5093538;28;20495;-78
2024/03/18 00:46:53;;;;;;;0.10;0.10;;;;;;;13.24;78.46;101583.06;5094969;28;20039;-78
2024/03/18 00:49:19;;;;;;;0.00;0.00;;;;;;;13.23;77.96;101585.78;5089595;28;20024;-78
2024/03/18 00:51:46;;;;;;;0.10;0.10;;;;;;;13.22;78.20;101584.91;5092887;28;20103;-77
2024/03/18 00:54:12;;;;;;;0.10;0.10;;;;;;;13.21;78.08;101583.16;5089669;28;20038;-77
2024/03/18 00:56:39;;;;;;;0.32;0.32;;;;;;;13.18;78.01;101577.00;5081451;28;20021;-77
2024/03/18 00:59:06;;;;;;;0.20;0.20;;;;;;;13.14;77.81;101575.31;5080772;28;20111;-78
2024/03/18 01:01:34;;;;;;;0.90;0.90;;;;;;;13.11;77.91;101574.47;5088082;28;20025;-77
2024/03/18 01:04:02;;;;;;;0.20;0.20;;;;;;;13.07;77.86;101574.53;5083874;28;20069;-78
2024/03/18 01:06:29;;;;;;;0.52;0.52;;;;;;;13.05;77.72;101574.59;5088616;28;20123;-77
2024/03/18 01:08:56;;;;;;;0.22;0.22;;;;;;;13.01;77.88;101570.22;5082730;28;20479;-78
2024/03/18 01:11:22;;;;;;;0.20;0.20;;;;;;;12.98;77.99;101569.41;5084621;28;20031;-77
2024/03/18 01:13:49;;;;;;;1.45;1.35;;;;;;;12.94;78.03;101563.25;5086551;28;20236;-77
2024/03/18 01:16:17;;;;;;;0.10;0.10;;;;;;;12.89;77.58;101566.00;5090304;28;20035;-78
2024/03/18 01:18:43;;;;;;;1.55;0.85;;;;;;;12.87;77.50;101564.28;5089290;28;20034;-76
2024/03/18 01:21:11;;;;;;;0.15;0.15;;;;;;;12.85;77.44;101566.97;5082449;28;20039;-78
2024/03/18 01:23:37;;;;;;;0.10;0.10;;;;;;;12.83;77.76;101566.09;5079859;28;20595;-77
2024/03/18 01:26:04;;;;;;;0.73;0.65;;;;;;;12.79;78.03;101564.41;5084609;28;20056;-78
2024/03/18 01:28:31;;;;;;;1.65;0.90;;;;;;;12.79;77.67;101564.41;5079426;28;20058;-79
2024/03/18 01:30:57;;;;;;;0.63;0.50;;;;;;;12.78;77.45;101566.22;5087739;28;20028;-78
2024/03/18 01:33:23;;;;;;;0.10;0.10;;;;;;;12.79;77.45;101562.63;5092787;28;20019;-78
2024/03/18 01:35:50;;;;;;;0.10;0.10;;;;;;;12.80;77.33;101560.84;5097585;28;20055;-79
2024/03/18 01:38:17;;;;;;;0.40;0.40;;;;;;;12.83;77.57;101559.94;5096303;28;20013;-79
2024/03/18 01:40:43;;;;;;;0.08;0.08;;;;;;;12.83;77.52;101558.13;5097989;28;20032;-77
2024/03/18 01:43:10;;;;;;;3.10;1.38;;;;;;;12.84;77.38;101557.22;5085483;28;20405;-78
2024/03/18 01:45:39;;;;;;;0.20;0.20;;;;;;;12.86;77.85;101555.44;5090957;28;20028;-77
2024/03/18 01:48:06;;;;;;;0.10;0.10;;;;;;;12.88;77.41;101552.72;5078632;28;20017;-78
2024/03/18 01:50:33;;;;;;;1.35;0.40;;;;;;;12.90;77.69;101557.13;5082459;28;20032;-77
2024/03/18 01:52:59;;;;;;;0.15;0.15;;;;;;;12.92;77.87;101549.09;5090662;28;20030;-78
2024/03/18 01:55:26;;;;;;;0.20;0.20;;;;;;;12.88;77.85;101553.59;5083436;28;20449;-81
2024/03/18 01:57:52;;;;;;;0.10;0.10;;;;;;;12.99;77.38;101552.56;5082936;28;20028;-79
2024/03/18 02:00:50;;;;;;;0.57;0.57;;;;;;;12.99;78.00;101556.06;5077855;28;20107;-80
2024/03/18 02:03:07;;;;;;;1.27;0.82;;;;;;;13.00;77.59;101555.16;5099558;28;20035;-79
2024/03/18 02:05:35;;;;;;;0.10;0.10;;;;;;;13.02;77.91;101544.50;5090872;28;20024;-79
2024/03/18 02:08:02;;;;;;;0.30;0.30;;;;;;;13.06;77.75;101551.50;5081339;28;20027;-79
2024/03/18 02:10:29;;;;;;;0.20;0.20;;;;;;;13.07;78.08;101548.84;5090784;28;20028;-79
2024/03/18 02:13:03;;;;;;;0.20;0.20;;;;;;;13.11;77.74;101537.22;5080580;28;20051;-77
2024/03/18 02:15:31;;;;;;;0.10;0.10;;;;;;;13.08;77.98;101534.63;5083092;28;20028;-78
2024/03/18 02:17:58;;;;;;;0.20;0.20;;;;;;;13.08;77.79;101536.41;5087159;28;20028;-79
2024/03/18 02:20:25;;;;;;;0.50;0.50;;;;;;;13.09;78.14;101531.03;5084415;28;20436;-79
2024/03/18 02:22:52;;;;;;;0.22;0.22;;;;;;;13.16;78.33;101525.59;5077882;28;20028;-80
2024/03/18 02:25:19;;;;;;;0.10;0.10;;;;;;;13.14;78.06;101530.09;5080193;28;20032;-79
2024/03/18 02:27:46;;;;;;;0.30;0.30;;;;;;;13.18;78.21;101529.13;5082016;28;20025;-79
2024/03/18 02:30:13;;;;;;;0.77;0.77;;;;;;;13.20;78.28;101522.84;5081203;28;20039;-78
2024/03/18 02:32:42;;;;;;;0.22;0.22;;;;;;;13.24;78.23;101523.66;5088870;28;20020;-79
2024/03/18 02:35:16;;;;;;;0.10;0.10;;;;;;;13.31;77.83;101521.75;5076490;28;20530;-78
2024/03/18 02:37:43;;;;;;;0.30;0.30;;;;;;;13.33;77.87;101519.94;5088198;28;20047;-79
2024/03/18 02:40:10;;;;;;;0.20;0.20;;;;;;;13.34;77.99;101514.59;5080492;28;20381;-76
2024/03/18 02:42:38;;;;;;;0.10;0.10;;;;;;;13.36;77.76;101511.91;5080332;28;20035;-77
2024/03/18 02:45:08;;;;;;;0.20;0.20;;;;;;;13.42;77.61;101514.44;5080911;28;20387;-77
2024/03/18 02:47:36;;;;;;;0.17;0.17;;;;;;;13.42;77.83;101509.13;5080511;28;20032;-78
2024/03/18 02:50:03;;;;;;;0.40;0.40;;;;;;;13.45;77.77;101495.75;5081875;28;20024;-77
2024/03/18 02:52:31;;;;;;;0.63;0.63;;;;;;;13.42;77.43;101502.03;5073608;28;20021;-78
2024/03/18 02:54:57;;;;;;;0.38;0.38;;;;;;;13.41;77.80;101500.28;5078574;28;20044;-78
2024/03/18 02:57:23;;;;;;;1.08;1.08;;;;;;;13.44;77.57;101499.31;5081622;28;20032;-78
2024/03/18 02:59:50;;;;;;;0.10;0.10;;;;;;;13.47;77.50;101499.28;5075072;28;20031;-79
2024/03/18 03:02:16;;;;;;;0.20;0.20;;;;;;;13.51;77.37;101494.78;5084650;28;20028;-77
2024/03/18 03:04:42;;;;;;;0.90;0.85;;;;;;;13.51;77.48;101490.31;5090154;28;20491;-77
2024/03/18 03:07:10;;;;;;;0.20;0.20;;;;;;;13.49;77.60;101497.44;5087748;28;20040;-77
2024/03/18 03:09:36;;;;;;;0.10;0.10;;;;;;;13.55;77.27;101496.44;5084294;28;20475;-78
2024/03/18 03:12:03;;;;;;;0.10;0.10;;;;;;;13.57;77.50;101491.94;5089989;28;20422;-76
2024/03/18 03:14:29;;;;;;;0.40;0.40;;;;;;;13.57;77.31;101491.94;5083187;28;20112;-76
2024/03/18 03:16:56;;;;;;;0.13;0.13;;;;;;;13.57;77.31;101490.16;5082889;28;20090;-79
2024/03/18 03:19:23;;;;;;;0.65;0.65;;;;;;;13.59;77.19;101487.47;5084649;28;20043;-77
2024/03/18 03:21:49;;;;;;;0.63;0.40;;;;;;;13.56;77.31;101482.22;5081683;28;20040;-77
2024/03/18 03:24:15;;;;;;;0.57;0.57;;;;;;;13.55;76.94;101486.66;5084538;28;20468;-77
2024/03/18 03:26:42;;;;;;;0.95;0.95;;;;;;;13.55;77.25;101497.31;5075117;28;20028;-76
2024/03/18 03:29:09;;;;;;;0.10;0.10;;;;;;;13.54;76.87;101495.56;5074495;28;20043;-77
2024/03/18 03:31:35;;;;;;;0.82;0.80;;;;;;;13.52;77.20;101497.38;5091947;28;20392;-76
2024/03/18 03:34:01;;;;;;;0.17;0.17;;;;;;;13.50;77.00;101501.84;5088966;28;20023;-77
2024/03/18 03:36:27;;;;;;;0.10;0.10;;;;;;;13.51;76.73;101492.97;5083430;28;20040;-78
2024/03/18 03:38:53;;;;;;;0.10;0.10;;;;;;;13.47;77.22;101501.03;5077263;28;20025;-78
2024/03/18 03:41:19;;;;;;;0.20;0.20;;;;;;;13.54;77.16;101505.34;5076574;28;20023;-77
2024/03/18 03:43:48;;;;;;;0.10;0.10;;;;;;;13.54;76.86;101513.31;5087292;28;20510;-78
2024/03/18 03:46:14;;;;;;;0.10;0.10;;;;;;;13.50;77.07;101509.84;5085248;28;20036;-80
2024/03/18 03:48:40;;;;;;;0.17;0.17;;;;;;;13.54;76.96;101505.34;5083760;28;20024;-80
2024/03/18 03:51:06;;;;;;;0.10;0.10;;;;;;;13.48;76.66;101509.00;5088387;28;20031;-80
2024/03/18 03:53:33;;;;;;;0.73;0.73;;;;;;;13.48;76.87;101510.78;5086517;28;20029;-80
2024/03/18 03:56:00;;;;;;;0.10;0.10;;;;;;;13.46;76.75;101508.16;5086733;28;20032;-79
2024/03/18 03:58:27;;;;;;;4.03;2.58;;;;;;;13.47;76.60;101509.94;5077336;28;20021;-79
2024/03/18 04:00:53;;;;;;;0.10;0.10;;;;;;;13.43;76.58;101514.44;5085248;28;20024;-78
2024/03/18 04:03:22;;;;;;;0.85;0.85;;;;;;;13.44;76.82;101509.97;5084134;28;20040;-79
2024/03/18 04:05:51;;;;;;;0.10;0.10;;;;;;;13.31;76.52;101519.09;5095627;28;20032;-79
2024/03/18 04:08:17;;;;;;;0.35;0.35;;;;;;;13.34;76.44;101519.91;5079390;28;20055;-77
2024/03/18 04:10:43;;;;;;;1.08;1.08;;;;;;;13.35;76.59;101521.66;5083451;28;20127;-78
2024/03/18 04:13:10;;;;;;;0.98;0.80;;;;;;;13.33;76.16;101517.28;5091254;28;20387;-78
2024/03/18 04:15:36;;;;;;;0.20;0.20;;;;;;;13.40;76.15;101519.81;5089134;28;20035;-78
2024/03/18 04:18:03;;;;;;;0.15;0.15;;;;;;;13.41;76.40;101529.56;5091399;28;20081;-79
2024/03/18 04:20:32;;;;;;;1.15;0.57;;;;;;;13.41;76.06;101528.69;5085900;28;20032;-79
2024/03/18 04:22:58;;;;;;;0.20;0.20;;;;;;;13.41;76.31;101528.69;5092001;28;20024;-78
2024/03/18 04:25:24;;;;;;;0.10;0.10;;;;;;;13.33;76.32;101533.25;5089949;28;20526;-78
2024/03/18 04:27:51;;;;;;;0.13;0.13;;;;;;;13.37;75.77;101535.88;5092095;28;20028;-80
2024/03/18 04:30:19;;;;;;;0.43;0.43;;;;;;;13.41;75.87;101536.69;5085661;28;20523;-78
2024/03/18 04:32:48;;;;;;;0.13;0.13;;;;;;;13.42;75.72;101541.06;5082450;28;20056;-76
2024/03/18 04:35:15;;;;;;;0.30;0.30;;;;;;;13.40;75.65;101538.44;5087297;28;20028;-77
2024/03/18 04:37:46;;;;;;;1.20;1.20;;;;;;;13.44;75.50;101536.59;5084861;28;20946;-78
2024/03/18 04:40:15;;;;;;;2.05;0.98;;;;;;;13.37;75.61;101529.59;5093819;28;20024;-78
2024/03/18 04:42:42;;;;;;;0.22;0.22;;;;;;;13.43;75.40;101534.84;5086897;28;20094;-79
2024/03/18 04:45:10;;;;;;;2.08;0.82;;;;;;;13.43;75.63;101540.16;5077845;28;20028;-77
2024/03/18 04:47:39;;;;;;;0.40;0.40;;;;;;;13.44;75.48;101536.59;5083880;28;20396;-77
2024/03/18 04:50:08;;;;;;;0.03;0.03;;;;;;;13.45;75.77;101538.34;5092789;28;20033;-78
2024/03/18 04:52:36;;;;;;;0.52;0.52;;;;;;;13.40;75.42;101540.25;5079202;28;20028;-78
2024/03/18 04:55:03;;;;;;;0.65;0.65;;;;;;;13.43;75.22;101534.84;5092480;28;20041;-79
2024/03/18 04:57:29;;;;;;;0.68;0.68;;;;;;;13.43;75.15;101540.16;5084426;28;20089;-77
2024/03/18 04:59:56;;;;;;;0.10;0.10;;;;;;;13.44;75.09;101539.25;5087024;28;20036;-77
2024/03/18 05:02:22;;;;;;;0.50;0.50;;;;;;;13.45;75.49;101548.16;5076437;28;20033;-79
2024/03/18 05:04:49;;;;;;;0.95;0.95;;;;;;;13.33;75.32;101541.25;5076746;28;20377;-79
2024/03/18 05:07:16;;;;;;;0.75;0.75;;;;;;;13.33;75.35;101534.13;5075790;28;20530;-78
2024/03/18 05:09:44;;;;;;;3.63;2.85;;;;;;;13.37;75.45;101543.84;5082656;28;20036;-78
2024/03/18 05:12:11;;;;;;;0.77;0.77;;;;;;;13.37;75.21;101546.50;5074656;28;20112;-77
2024/03/18 05:14:38;;;;;;;0.30;0.30;;;;;;;13.39;75.16;101549.13;5094231;28;20127;-77
2024/03/18 05:17:04;;;;;;;0.20;0.20;;;;;;;13.41;75.27;101547.31;5090716;28;20443;-79
2024/03/18 05:19:31;;;;;;;0.30;0.30;;;;;;;13.44;75.09;101552.56;5091582;28;20028;-80
2024/03/18 05:21:57;;;;;;;1.55;1.27;;;;;;;13.46;75.37;101550.75;5088639;28;20036;-80
2024/03/18 05:24:23;;;;;;;0.22;0.22;;;;;;;13.47;75.48;101547.19;5088185;28;20028;-77
2024/03/18 05:26:50;;;;;;;0.10;0.10;;;;;;;13.45;75.24;101548.16;5084124;28;20101;-79
2024/03/18 05:29:16;;;;;;;0.20;0.20;;;;;;;13.36;75.61;101542.06;5081224;28;20027;-79
2024/03/18 05:31:45;;;;;;;0.15;0.15;;;;;;;13.34;75.58;101541.19;5084716;28;20387;-77
2024/03/18 05:34:11;;;;;;;0.63;0.63;;;;;;;13.42;75.09;101541.97;5077846;28;20403;-77
2024/03/18 05:36:38;;;;;;;0.10;0.10;;;;;;;13.45;75.37;101549.00;5081233;28;20411;-81
2024/03/18 05:39:04;;;;;;;0.68;0.68;;;;;;;13.46;75.05;101548.09;5076906;28;20158;-79
2024/03/18 05:41:30;;;;;;;0.20;0.20;;;;;;;13.46;75.29;101550.75;5080728;28;20036;-78
2024/03/18 05:43:57;;;;;;;0.40;0.40;;;;;;;13.46;75.31;101552.53;5092262;28;20028;-77
2024/03/18 05:46:23;;;;;;;1.20;1.17;;;;;;;13.46;75.20;101548.09;5089484;28;20032;-78
2024/03/18 05:48:49;;;;;;;0.00;0.00;;;;;;;13.48;74.93;101548.06;5088452;28;20106;-78
2024/03/18 05:51:15;;;;;;;0.50;0.50;;;;;;;13.49;74.96;101548.03;5077252;28;20059;-79
2024/03/18 05:53:41;;;;;;;0.50;0.50;;;;;;;13.49;75.02;101542.69;5086585;28;20024;-79
2024/03/18 05:56:08;;;;;;;0.85;0.85;;;;;;;13.49;75.13;101549.81;5084881;28;20029;-77
2024/03/18 05:58:41;;;;;;;0.77;0.55;;;;;;;13.52;75.23;101545.31;5075163;28;20106;-80
2024/03/18 06:01:11;;;;;;;1.00;1.00;;;;;;;13.53;74.85;101543.50;5087757;28;20188;-80
2024/03/18 06:03:40;;;;;;;1.15;0.43;;;;;;;13.54;75.05;101548.78;5075833;28;20119;-78
2024/03/18 06:06:08;;;;;;;1.85;1.75;;;;;;;13.56;75.17;101551.44;5093594;28;20028;-77
2024/03/18 06:08:34;;;;;;;0.10;0.10;;;;;;;13.55;74.89;101545.22;5087502;28;20091;-79
2024/03/18 06:11:01;;;;;;;1.65;0.65;;;;;;;13.55;75.19;101549.69;5073664;28;20112;-79
2024/03/18 06:13:28;;;;;;;0.65;0.65;;;;;;;13.57;75.28;101550.50;5086618;28;20093;-79
2024/03/18 06:15:55;;;;;;;0.10;0.10;;;;;;;13.57;74.91;101543.44;5085297;28;20039;-78
2024/03/18 06:18:21;;;;;;;0.25;0.25;;;;;;;13.59;75.07;101552.25;5080381;28;20410;-78
2024/03/18 06:20:50;;;;;;;0.13;0.13;;;;;;;13.59;74.93;101544.28;5080368;28;20021;-80
2024/03/18 06:23:18;;;;;;;0.60;0.60;;;;;;;13.61;75.12;101543.34;5090027;28;20476;-78
2024/03/18 06:26:00;;;;;;;0.10;0.10;;;;;;;13.63;74.98;101549.53;5097368;28;20086;-77
2024/03/18 06:28:31;;;;;;;0.40;0.40;;;;;;;13.68;75.26;101550.28;5089152;28;20032;-77
2024/03/18 06:30:58;;;;;;;0.10;0.10;;;;;;;13.64;75.30;101559.28;5094044;28;20285;-78
2024/03/18 06:33:26;;;;;;;0.10;0.10;;;;;;;13.59;75.01;101568.25;5090795;28;20032;-77
2024/03/18 06:35:54;;;;;;;0.68;0.68;;;;;;;13.60;75.03;101558.47;5085313;28;20032;-78
2024/03/18 06:38:21;;;;;;;0.25;0.25;;;;;;;13.59;74.77;101562.03;5088858;28;20499;-78
2024/03/18 06:40:49;;;;;;;0.10;0.10;;;;;;;13.56;75.12;101572.75;5091561;28;20038;-80
2024/03/18 06:43:15;;;;;;;0.17;0.17;;;;;;;13.56;75.09;101573.63;5088933;28;20058;-79
2024/03/18 06:45:42;;;;;;;0.40;0.40;;;;;;;13.52;74.74;101576.38;5075555;28;20025;-81
2024/03/18 06:48:08;;;;;;;3.95;1.48;;;;;;;13.52;75.13;101576.38;5074472;28;20455;-80
2024/03/18 06:50:38;;;;;;;0.20;0.20;;;;;;;13.50;74.81;101575.53;5080023;28;20035;-81
2024/03/18 06:53:05;;;;;;;7.03;2.60;;;;;;;13.50;75.29;101575.53;5080561;28;20029;-80
2024/03/18 06:55:32;;;;;;;0.30;0.30;;;;;;;13.50;75.33;101589.72;5075861;28;20024;-80
2024/03/18 06:57:59;;;;;;;0.10;0.10;;;;;;;13.46;75.00;101589.81;5077106;28;20024;-79
2024/03/18 07:00:25;;;;;;;0.10;0.10;;;;;;;13.48;75.10;101586.19;5078459;28;20404;-79
2024/03/18 07:02:52;;;;;;;0.38;0.38;;;;;;;13.47;75.17;101581.81;5075129;28;20040;-79
2024/03/18 07:05:20;;;;;;;0.40;0.40;;;;;;;13.49;75.10;101584.44;5093476;28;20035;-77
2024/03/18 07:07:47;;;;;;;1.23;0.90;;;;;;;13.50;75.50;101595.03;5089130;28;20044;-77
2024/03/18 07:10:13;;;;;;;0.43;0.43;;;;;;;13.50;75.28;101599.50;5086210;28;20024;-77
2024/03/18 07:12:40;;;;;;;0.28;0.28;;;;;;;13.53;75.50;101600.31;5096745;28;20047;-80
2024/03/18 07:15:08;;;;;;;0.10;0.10;;;;;;;13.54;75.63;101593.19;5097281;28;20092;-82
2024/03/18 07:17:35;;;;;;;0.20;0.20;;;;;;;13.50;75.52;101591.50;5094266;28;20423;-80
2024/03/18 07:20:06;;;;;;;0.10;0.10;;;;;;;13.54;75.30;101593.19;5086527;28;20020;-79
2024/03/18 07:22:33;;;;;;;0.25;0.25;;;;;;;13.55;75.76;101603.81;5092250;28;20024;-78
2024/03/18 07:25:00;;;;;;;0.20;0.20;;;;;;;13.54;75.63;101596.72;5098243;28;20029;-79
2024/03/18 07:27:27;;;;;;;1.05;1.05;;;;;;;13.49;75.64;101598.59;5078486;28;20119;-78
2024/03/18 07:29:55;;;;;;;0.40;0.40;;;;;;;13.49;75.86;101598.59;5094512;28;20024;-78
2024/03/18 07:32:23;;;;;;;0.43;0.43;;;;;;;13.49;75.93;101603.06;5086034;28;20077;-79
2024/03/18 07:34:50;;;;;;;0.10;0.10;;;;;;;13.48;75.79;101601.31;5098055;28;20089;-79
2024/03/18 07:37:17;;;;;;;1.20;1.10;;;;;;;13.50;75.65;101611.00;5084217;28;20028;-81
2024/03/18 07:39:43;;;;;;;1.73;1.67;;;;;;;13.50;75.70;101611.00;5092767;28;20070;-79
2024/03/18 07:42:11;;;;;;;0.80;0.80;;;;;;;13.50;76.05;101615.47;5086708;28;20071;-78
2024/03/18 07:44:38;;;;;;;1.23;1.15;;;;;;;13.57;76.08;101609.09;5076379;28;20446;-77
2024/03/18 07:47:04;;;;;;;0.10;0.10;;;;;;;13.58;76.01;101603.75;5075629;28;20016;-77
2024/03/18 07:49:30;;;;;;;0.20;0.20;;;;;;;13.64;76.30;101597.41;5083783;28;20040;-78
2024/03/18 07:51:57;;;;;;;1.52;1.45;;;;;;;13.64;76.02;101605.41;5077449;28;20376;-78
2024/03/18 07:54:23;;;;;;;2.03;0.55;;;;;;;13.72;76.15;101614.13;5074896;28;20484;-78
2024/03/18 07:56:50;;;;;;;0.47;0.47;;;;;;;13.78;76.00;101610.44;5081756;28;20025;-79
2024/03/18 07:59:16;;;;;;;2.05;1.95;;;;;;;13.82;76.28;101611.25;5077616;28;20020;-80
2024/03/18 08:01:42;;;;;;;0.10;0.10;;;;;;;13.91;76.09;101611.94;5078868;28;20025;-79
2024/03/18 08:04:08;;;;;;;0.25;0.25;;;;;;;14.00;76.23;101608.19;5081908;28;20067;-81
2024/03/18 08:06:34;;;;;;;0.80;0.80;;;;;;;13.99;76.24;101613.56;5079588;28;20048;-82
2024/03/18 08:09:00;;;;;;;3.03;0.95;;;;;;;13.93;76.42;101619.03;5086914;28;20042;-80
2024/03/18 08:11:26;;;;;;;0.32;0.32;;;;;;;13.93;76.66;101616.34;5077775;28;20085;-81
2024/03/18 08:13:53;;;;;;;7.28;1.88;;;;;;;14.11;76.28;101618.63;5083669;28;20027;-81
2024/03/18 08:16:19;;;;;;;2.08;1.52;;;;;;;14.21;76.13;101625.50;5087705;28;20028;-80
2024/03/18 08:18:45;;;;;;;0.15;0.15;;;;;;;14.26;75.92;101627.19;5079667;28;20032;-80
2024/03/18 08:21:11;;;;;;;1.05;1.05;;;;;;;14.34;75.74;101633.22;5077000;28;20020;-81
2024/03/18 08:23:37;;;;;;;0.77;0.77;;;;;;;14.34;75.50;101635.88;5076626;28;20047;-80
2024/03/18 08:26:03;;;;;;;0.30;0.30;;;;;;;14.32;74.98;101629.72;5077345;28;20042;-80
2024/03/18 08:28:29;;;;;;;0.52;0.52;;;;;;;14.14;74.52;101639.84;5082739;28;20523;-80
2024/03/18 08:30:56;;;;;;;0.20;0.20;;;;;;;14.24;74.62;101641.44;5075856;28;20025;-81
2024/03/18 08:33:22;;;;;;;0.10;0.10;;;;;;;14.23;73.81;101637.00;5078919;28;20024;-81
2024/03/18 08:35:51;;;;;;;1.10;1.10;;;;;;;14.31;74.09;101635.97;5085554;28;20055;-80
2024/03/18 08:38:17;;;;;;;0.75;0.75;;;;;;;14.29;73.38;101637.78;5078701;28;20043;-80
2024/03/18 08:40:44;;;;;;;6.18;2.38;;;;;;;14.36;73.56;101639.38;5081126;28;20028;-79
2024/03/18 08:43:10;;;;;;;0.13;0.13;;;;;;;14.34;73.01;101641.19;5082709;28;20031;-79
2024/03/18 08:45:36;;;;;;;1.45;1.45;;;;;;;14.32;72.54;101646.56;5099466;28;20046;-78
2024/03/18 08:48:03;;;;;;;1.05;1.05;;;;;;;14.37;72.48;101647.34;5096672;28;20456;-80
2024/03/18 08:50:30;;;;;;;0.25;0.25;;;;;;;14.49;73.02;101643.53;5098821;28;20141;-79
2024/03/18 08:52:56;;;;;;;0.57;0.57;;;;;;;14.57;73.04;101644.22;5095611;28;20027;-81
2024/03/18 08:55:22;;;;;;;0.20;0.20;;;;;;;14.65;72.63;101645.84;5076759;28;20044;-78
2024/03/18 08:57:48;;;;;;;0.45;0.43;;;;;;;14.76;72.54;101648.25;5081625;28;20498;-79
2024/03/18 09:00:15;;;;;;;0.10;0.10;;;;;;;14.93;72.91;101642.50;5093603;28;20032;-79
2024/03/18 09:02:42;;;;;;;0.47;0.47;;;;;;;14.99;71.98;101645.00;5094008;28;20482;-79
2024/03/18 09:05:08;;;;;;;0.40;0.40;;;;;;;15.06;71.43;101651.94;5085198;28;20049;-78
2024/03/18 09:07:34;;;;;;;0.43;0.43;;;;;;;15.06;69.48;101653.75;5092826;28;20495;-78
2024/03/18 09:10:00;;;;;;;0.25;0.25;;;;;;;15.16;70.25;101653.44;5095374;28;20081;-77
2024/03/18 09:12:26;;;;;;;0.30;0.30;;;;;;;15.16;69.06;101647.25;5092250;28;20100;-79
2024/03/18 09:14:53;;;;;;;1.05;0.98;;;;;;;15.22;69.26;101651.56;5090605;28;20028;-79
2024/03/18 09:17:20;;;;;;;0.40;0.40;;;;;;;15.27;68.78;101652.31;5088880;28;20082;-80
2024/03/18 09:19:46;;;;;;;1.25;0.73;;;;;;;15.30;68.23;101658.44;5093835;28;20524;-81
2024/03/18 09:22:13;;;;;;;0.30;0.30;;;;;;;15.39;68.12;101654.66;5095493;28;20061;-79
2024/03/18 09:24:39;;;;;;;0.13;0.13;;;;;;;15.50;67.88;101651.66;5095783;28;20035;-80
2024/03/18 09:27:07;;;;;;;0.30;0.30;;;;;;;15.62;68.99;101655.78;5094116;28;20098;-79
2024/03/18 09:29:34;;;;;;;0.10;0.10;;;;;;;15.69;67.59;101658.25;5094632;28;20088;-79
2024/03/18 09:32:00;;;;;;;0.10;0.10;;;;;;;15.71;66.16;101655.53;5093326;28;20030;-79
2024/03/18 09:34:26;;;;;;;1.95;1.45;;;;;;;15.78;66.33;101661.59;5076692;28;20040;-79
2024/03/18 09:36:52;;;;;;;0.15;0.15;;;;;;;15.80;67.26;101654.38;5081809;28;20032;-80
2024/03/18 09:39:18;;;;;;;0.10;0.10;;;;;;;15.88;65.88;101659.56;5082273;28;20033;-81
2024/03/18 09:41:50;;;;;;;0.40;0.40;;;;;;;15.88;63.31;101670.25;5075669;28;20059;-79
2024/03/18 09:44:16;;;;;;;0.20;0.20;;;;;;;15.83;61.15;101667.69;5076234;28;20103;-79
2024/03/18 09:46:43;;;;;;;0.50;0.50;;;;;;;15.85;60.80;101669.41;5085211;28;20487;-79
2024/03/18 09:49:17;;;;;;;0.77;0.77;;;;;;;15.91;61.31;101664.81;5087083;28;20106;-77
2024/03/18 09:51:45;;;;;;;0.10;0.10;;;;;;;15.76;59.90;101671.44;5080711;28;20099;-78
2024/03/18 09:54:17;;;;;;;1.20;0.80;;;;;;;15.78;58.12;101670.47;5072346;28;20024;-77
2024/03/18 09:56:52;;;;;;;0.20;0.20;;;;;;;15.75;60.04;101670.56;5073561;28;20029;-77
2024/03/18 09:59:18;;;;;;;0.10;0.10;;;;;;;15.72;57.48;101667.97;5076795;28;20053;-79
2024/03/18 10:01:44;;;;;;;0.10;0.10;;;;;;;15.74;59.41;101667.91;5076825;28;20028;-79
2024/03/18 10:04:10;;;;;;;0.25;0.25;;;;;;;15.66;56.38;101679.72;5079357;28;20051;-79
2024/03/18 10:06:37;;;;;;;0.10;0.10;;;;;;;15.54;52.81;101664.03;5072698;28;20033;-79
2024/03/18 10:09:03;;;;;;;0.10;0.10;;;;;;;15.82;56.31;101680.16;5073253;28;20111;-77
2024/03/18 10:11:30;;;;;;;0.10;0.10;;;;;;;15.84;55.44;101667.66;5077135;28;20036;-78
2024/03/18 10:13:56;;;;;;;1.40;1.30;;;;;;;15.90;55.63;101665.72;5073861;28;20079;-78
2024/03/18 10:16:23;;;;;;;0.10;0.10;;;;;;;15.93;55.54;101671.00;5075171;28;20032;-77
2024/03/18 10:18:49;;;;;;;0.10;0.10;;;;;;;15.97;55.10;101669.97;5074051;28;20399;-78
2024/03/18 10:21:15;;;;;;;0.10;0.10;;;;;;;15.99;54.18;101678.81;5074020;28;20020;-77
2024/03/18 10:23:53;;;;;;;0.10;0.10;;;;;;;15.99;53.70;101678.81;5074127;28;20056;-78
2024/03/18 10:26:19;;;;;;;4.38;1.45;;;;;;;16.01;51.11;101684.97;5073494;28;20013;-80
2024/03/18 10:28:46;;;;;;;0.10;0.10;;;;;;;16.04;51.02;101684.91;5073249;28;20024;-78
2024/03/18 10:31:16;;;;;;;0.10;0.10;;;;;;;16.07;51.47;101684.81;5074874;28;20040;-79
2024/03/18 10:33:46;;;;;;;0.10;0.10;;;;;;;16.16;52.92;101689.91;5084943;28;20058;-79
2024/03/18 10:36:24;;;;;;;0.47;0.47;;;;;;;16.12;49.66;101690.88;5084477;28;20399;-80
2024/03/18 10:39:04;;;;;;;0.10;0.10;;;;;;;16.29;51.03;101685.03;5085095;28;20024;-78
2024/03/18 10:41:35;;;;;;;0.10;0.10;;;;;;;16.35;52.62;101694.69;5073436;28;20029;-80
2024/03/18 10:44:20;;;;;;;0.10;0.10;;;;;;;16.42;51.23;101690.88;5076127;28;20064;-79
2024/03/18 10:46:47;;;;;;;0.10;0.10;;;;;;;16.48;51.68;101685.34;5073134;28;20028;-77
2024/03/18 10:49:18;;;;;;;0.10;0.10;;;;;;;16.49;49.00;101687.09;5075527;28;20557;-77
2024/03/18 10:51:46;;;;;;;0.65;0.60;;;;;;;16.65;49.22;101691.97;5076203;28;20020;-77
2024/03/18 10:54:15;;;;;;;0.10;0.10;;;;;;;16.71;48.99;101697.13;5086012;28;20048;-78
2024/03/18 10:56:44;;;;;;;4.90;1.75;;;;;;;16.84;48.96;101694.06;5080752;28;20027;-79
2024/03/18 10:59:12;;;;;;;0.10;0.10;;;;;;;16.95;50.13;101694.59;5099541;28;20028;-77
2024/03/18 11:01:39;;;;;;;0.10;0.10;;;;;;;17.04;48.85;101685.41;5085582;28;20035;-78
2024/03/18 11:04:20;;;;;;;0.10;0.10;;;;;;;17.10;49.08;101688.72;5081500;28;20750;-78
2024/03/18 11:06:51;;;;;;;0.10;0.10;;;;;;;17.06;46.95;101695.13;5080060;28;20048;-79
2024/03/18 11:09:19;;;;;;;0.10;0.10;;;;;;;16.97;47.02;101701.66;5081934;28;20059;-79
2024/03/18 11:11:45;;;;;;;0.40;0.40;;;;;;;17.01;46.35;101705.13;5093685;28;20046;-77
2024/03/18 11:14:23;;;;;;;0.10;0.10;;;;;;;17.09;47.56;101700.34;5081157;28;20027;-79
2024/03/18 11:16:51;;;;;;;0.00;0.00;;;;;;;17.02;44.82;101706.84;5082168;28;20035;-79
2024/03/18 11:19:19;;;;;;;7.47;2.05;;;;;;;17.14;45.00;101717.16;5090141;28;20021;-78
2024/03/18 11:21:56;;;;;;;0.10;0.10;;;;;;;17.09;44.12;101707.53;5078221;28;20185;-82
2024/03/18 11:24:23;;;;;;;0.10;0.10;;;;;;;17.13;42.60;101709.16;5078878;28;20032;-80